EDMA/AGB METAR and TAF weather

Enter ICAO airport designator
Station Type Date Time Source
EDMA METAR 2022/05/25 00:20 UTC NOAA

EDMA 250020Z AUTO 08003KT 9999 FEW054/// OVC089/// 12/12 Q1013


Station Type Date Time Source
EDMA Decoded METAR 2022/05/25 00:20 UTC NOAA

Augsburg, Germany (EDMA) 48-26N 010-56E 463M
May 24, 2022 - 08:20 PM EDT / 2022.05.25 0020 UTC
Wind: from the E (080 degrees) at 3 MPH (3 KT):0
Visibility: greater than 7 mile(s):0
Sky conditions: overcast
Temperature: 53 F (12 C)
Dew Point: 53 F (12 C)
Relative Humidity: 100%
Pressure (altimeter): 29.91 in. Hg (1013 hPa)
ob: EDMA 250020Z AUTO 08003KT 9999 FEW054/// OVC089/// 12/12 Q1013
cycle: 0

Station Type Date Time Source
EDMA TAF 2010/02/22 13:50 UTC NOAA

METAR EDMA 221350Z 23006KT CAVOK 10/02 Q0996

Example: see airport list